JBU318 KFLL-KATL
Flight info
| Callsign | JBU318 |
|---|---|
| Flight time | 1h 23m |
| Altitude | 34000 |
| Route | FRSBE2 STYMY Q77 MJAMS/N0434F330 Q77 SHRKS/N0436F340 LAIRI LARZZ JJEDI4 |
| Aircraft | A320/M-SDE3FGHIRWY/LB1 |
Departure
| Time | 2026-05-04 00:18 |
|---|---|
| Airport | Fort Lauderdale Hollywood International Airport (KFLL) |
Arrival
| Time | 2026-05-04 01:41 |
|---|---|
| Airport | Hartsfield Jackson Atlanta International Airport (KATL) |
| Time | Latitude | Longitude | Altitude | Speed | Heading |
|---|---|---|---|---|---|
| 2026-05-03 23:05 | 26.07058 | -80.14707 | 17 ft | 0 kts | 58° |
| 2026-05-03 23:15 | 26.07050 | -80.14722 | 17 ft | 2 kts | 57° |
| 2026-05-03 23:15 | 26.07043 | -80.14734 | 18 ft | 0 kts | 57° |
| 2026-05-03 23:16 | 26.07035 | -80.14749 | 17 ft | 2 kts | 44° |
| 2026-05-03 23:16 | 26.07023 | -80.14746 | 19 ft | 2 kts | 320° |
| 2026-05-03 23:16 | 26.07010 | -80.14734 | 17 ft | 2 kts | 323° |
| 2026-05-03 23:16 | 26.06998 | -80.14722 | 19 ft | 2 kts | 296° |
| 2026-05-03 23:17 | 26.06994 | -80.14710 | 17 ft | 1 kts | 273° |
| 2026-05-03 23:17 | 26.06994 | -80.14709 | 17 ft | 0 kts | 272° |
| 2026-05-03 23:21 | 26.06994 | -80.14710 | 17 ft | 1 kts | 269° |
| 2026-05-03 23:21 | 26.06994 | -80.14730 | 17 ft | 6 kts | 275° |
| 2026-05-03 23:21 | 26.07025 | -80.14793 | 16 ft | 13 kts | 313° |
| 2026-05-03 23:21 | 26.07078 | -80.14851 | 18 ft | 5 kts | 315° |
| 2026-05-03 23:22 | 26.07093 | -80.14863 | 16 ft | 0 kts | 336° |
| 2026-05-03 23:22 | 26.07103 | -80.14871 | 16 ft | 7 kts | 322° |
| 2026-05-03 23:22 | 26.07127 | -80.14897 | 16 ft | 12 kts | 311° |
| 2026-05-03 23:23 | 26.07219 | -80.14949 | 16 ft | 17 kts | 356° |
| 2026-05-03 23:23 | 26.07340 | -80.14942 | 16 ft | 18 kts | 6° |
| 2026-05-03 23:23 | 26.07440 | -80.14991 | 17 ft | 17 kts | 317° |
| 2026-05-03 23:23 | 26.07490 | -80.15105 | 16 ft | 18 kts | 270° |
| 2026-05-03 23:24 | 26.07490 | -80.15247 | 16 ft | 19 kts | 270° |
| 2026-05-03 23:24 | 26.07491 | -80.15400 | 15 ft | 21 kts | 270° |
| 2026-05-03 23:24 | 26.07492 | -80.15564 | 16 ft | 22 kts | 270° |
| 2026-05-03 23:24 | 26.07492 | -80.15732 | 16 ft | 19 kts | 270° |
| 2026-05-03 23:25 | 26.07492 | -80.15775 | 16 ft | 0 kts | 270° |
| 2026-05-03 23:30 | 26.07493 | -80.15779 | 16 ft | 2 kts | 270° |
| 2026-05-03 23:31 | 26.07493 | -80.15811 | 16 ft | 5 kts | 271° |
| 2026-05-03 23:31 | 26.07493 | -80.15857 | 16 ft | 6 kts | 271° |
| 2026-05-03 23:31 | 26.07493 | -80.15859 | 16 ft | 0 kts | 271° |
| 2026-05-03 23:36 | 26.07494 | -80.15910 | 16 ft | 9 kts | 271° |
| 2026-05-03 23:37 | 26.07494 | -80.15922 | 16 ft | 0 kts | 271° |
| 2026-05-03 23:39 | 26.07494 | -80.15941 | 16 ft | 6 kts | 269° |
| 2026-05-03 23:39 | 26.07494 | -80.15979 | 16 ft | 0 kts | 269° |
| 2026-05-03 23:44 | 26.07494 | -80.16014 | 16 ft | 12 kts | 269° |
| 2026-05-03 23:44 | 26.07494 | -80.16030 | 16 ft | 0 kts | 269° |
| 2026-05-03 23:46 | 26.07494 | -80.16031 | 16 ft | 0 kts | 269° |
| 2026-05-03 23:46 | 26.07494 | -80.16038 | 16 ft | 1 kts | 269° |
| 2026-05-03 23:47 | 26.07494 | -80.16046 | 16 ft | 0 kts | 269° |
| 2026-05-03 23:49 | 26.07494 | -80.16052 | 16 ft | 1 kts | 269° |
| 2026-05-03 23:49 | 26.07493 | -80.16065 | 16 ft | 2 kts | 270° |
| 2026-05-03 23:49 | 26.07494 | -80.16084 | 16 ft | 3 kts | 271° |
| 2026-05-03 23:50 | 26.07495 | -80.16108 | 16 ft | 4 kts | 272° |
| 2026-05-03 23:50 | 26.07496 | -80.16139 | 16 ft | 4 kts | 272° |
| 2026-05-03 23:50 | 26.07496 | -80.16147 | 16 ft | 0 kts | 272° |
| 2026-05-03 23:53 | 26.07496 | -80.16151 | 16 ft | 1 kts | 272° |
| 2026-05-03 23:53 | 26.07497 | -80.16165 | 16 ft | 2 kts | 272° |
| 2026-05-03 23:53 | 26.07497 | -80.16170 | 16 ft | 0 kts | 272° |
| 2026-05-03 23:54 | 26.07497 | -80.16173 | 16 ft | 1 kts | 272° |
| 2026-05-03 23:54 | 26.07498 | -80.16186 | 16 ft | 3 kts | 272° |
| 2026-05-03 23:54 | 26.07497 | -80.16211 | 16 ft | 4 kts | 265° |
| 2026-05-03 23:55 | 26.07496 | -80.16230 | 16 ft | 0 kts | 268° |
| 2026-05-03 23:57 | 26.07496 | -80.16235 | 16 ft | 2 kts | 268° |
| 2026-05-03 23:57 | 26.07495 | -80.16254 | 16 ft | 3 kts | 269° |
| 2026-05-03 23:58 | 26.07496 | -80.16286 | 16 ft | 5 kts | 270° |
| 2026-05-03 23:58 | 26.07496 | -80.16301 | 16 ft | 0 kts | 270° |
| 2026-05-03 23:58 | 26.07496 | -80.16303 | 16 ft | 1 kts | 270° |
| 2026-05-03 23:59 | 26.07496 | -80.16310 | 16 ft | 0 kts | 270° |
| 2026-05-03 23:59 | 26.07496 | -80.16315 | 16 ft | 2 kts | 270° |
| 2026-05-04 00:00 | 26.07496 | -80.16334 | 16 ft | 3 kts | 270° |
| 2026-05-04 00:00 | 26.07496 | -80.16351 | 16 ft | 0 kts | 270° |
| 2026-05-04 00:01 | 26.07496 | -80.16360 | 7 ft | 2 kts | 270° |
| 2026-05-04 00:02 | 26.07496 | -80.16361 | 6 ft | 0 kts | 270° |
| 2026-05-04 00:02 | 26.07496 | -80.16368 | 11 ft | 2 kts | 270° |
| 2026-05-04 00:03 | 26.07496 | -80.16381 | 22 ft | 0 kts | 270° |
| 2026-05-04 00:03 | 26.07496 | -80.16387 | 16 ft | 2 kts | 270° |
| 2026-05-04 00:03 | 26.07496 | -80.16406 | 16 ft | 3 kts | 270° |
| 2026-05-04 00:04 | 26.07496 | -80.16432 | 16 ft | 0 kts | 270° |
| 2026-05-04 00:04 | 26.07496 | -80.16434 | 16 ft | 1 kts | 270° |
| 2026-05-04 00:04 | 26.07496 | -80.16449 | 16 ft | 3 kts | 270° |
| 2026-05-04 00:04 | 26.07496 | -80.16450 | 16 ft | 0 kts | 270° |
| 2026-05-04 00:06 | 26.07496 | -80.16453 | 16 ft | 3 kts | 270° |
| 2026-05-04 00:06 | 26.07497 | -80.16542 | 16 ft | 14 kts | 270° |
| 2026-05-04 00:06 | 26.07497 | -80.16571 | 16 ft | 0 kts | 270° |
| 2026-05-04 00:07 | 26.07497 | -80.16580 | 16 ft | 2 kts | 270° |
| 2026-05-04 00:07 | 26.07499 | -80.16602 | 16 ft | 4 kts | 277° |
| 2026-05-04 00:08 | 26.07503 | -80.16619 | 16 ft | 0 kts | 290° |
| 2026-05-04 00:10 | 26.07505 | -80.16624 | 16 ft | 2 kts | 293° |
| 2026-05-04 00:10 | 26.07516 | -80.16635 | 16 ft | 3 kts | 324° |
| 2026-05-04 00:10 | 26.07539 | -80.16641 | 16 ft | 0 kts | 354° |
| 2026-05-04 00:12 | 26.07546 | -80.16642 | 17 ft | 2 kts | 354° |
| 2026-05-04 00:12 | 26.07564 | -80.16644 | 16 ft | 3 kts | 356° |
| 2026-05-04 00:12 | 26.07582 | -80.16644 | 18 ft | 0 kts | 1° |
| 2026-05-04 00:17 | 26.07624 | -80.16642 | 17 ft | 12 kts | 1° |
| 2026-05-04 00:17 | 26.07695 | -80.16610 | 20 ft | 12 kts | 79° |
| 2026-05-04 00:17 | 26.07695 | -80.16559 | 18 ft | 9 kts | 90° |
| 2026-05-04 00:17 | 26.07695 | -80.16214 | 20 ft | 81 kts | 90° |
| 2026-05-04 00:18 | 26.07688 | -80.15356 | 16 ft | 137 kts | 90° |
| 2026-05-04 00:18 | 26.07682 | -80.14127 | 109 ft | 173 kts | 88° |
| 2026-05-04 00:18 | 26.07705 | -80.12802 | 763 ft | 174 kts | 86° |
| 2026-05-04 00:18 | 26.07759 | -80.11402 | 1316 ft | 186 kts | 85° |
| 2026-05-04 00:19 | 26.07860 | -80.09931 | 1653 ft | 204 kts | 78° |
| 2026-05-04 00:19 | 26.08407 | -80.08397 | 1883 ft | 225 kts | 58° |
| 2026-05-04 00:19 | 26.09507 | -80.07058 | 2204 ft | 247 kts | 32° |
| 2026-05-04 00:19 | 26.11142 | -80.06276 | 2742 ft | 262 kts | 18° |
| 2026-05-04 00:20 | 26.12292 | -80.05822 | 3276 ft | 267 kts | 18° |
| 2026-05-04 00:20 | 26.14063 | -80.05109 | 4084 ft | 272 kts | 16° |
| 2026-05-04 00:20 | 26.15939 | -80.04851 | 4873 ft | 274 kts | 350° |
| 2026-05-04 00:20 | 26.17767 | -80.05421 | 5646 ft | 275 kts | 336° |
| 2026-05-04 00:21 | 26.19548 | -80.06163 | 6467 ft | 278 kts | 335° |
| 2026-05-04 00:21 | 26.21245 | -80.07158 | 7232 ft | 276 kts | 320° |
| 2026-05-04 00:21 | 26.22633 | -80.08616 | 8038 ft | 273 kts | 303° |
| 2026-05-04 00:21 | 26.23545 | -80.10454 | 8860 ft | 271 kts | 288° |
| 2026-05-04 00:22 | 26.24221 | -80.12421 | 9689 ft | 272 kts | 288° |
| 2026-05-04 00:22 | 26.24910 | -80.14391 | 10421 ft | 274 kts | 288° |
| 2026-05-04 00:22 | 26.25697 | -80.16349 | 11085 ft | 282 kts | 297° |
| 2026-05-04 00:22 | 26.26771 | -80.18287 | 11287 ft | 305 kts | 299° |
| 2026-05-04 00:23 | 26.27943 | -80.20349 | 11534 ft | 323 kts | 299° |
| 2026-05-04 00:23 | 26.29167 | -80.22482 | 12106 ft | 329 kts | 299° |
| 2026-05-04 00:23 | 26.30407 | -80.24640 | 12754 ft | 332 kts | 299° |
| 2026-05-04 00:23 | 26.31658 | -80.26822 | 13435 ft | 335 kts | 299° |
| 2026-05-04 00:24 | 26.32916 | -80.29024 | 14074 ft | 338 kts | 299° |
| 2026-05-04 00:24 | 26.34182 | -80.31246 | 14676 ft | 340 kts | 298° |
| 2026-05-04 00:24 | 26.35454 | -80.33484 | 15266 ft | 343 kts | 298° |
| 2026-05-04 00:24 | 26.36714 | -80.35708 | 15837 ft | 345 kts | 298° |
| 2026-05-04 00:25 | 26.37999 | -80.37979 | 16421 ft | 347 kts | 297° |
| 2026-05-04 00:25 | 26.39294 | -80.40271 | 16989 ft | 350 kts | 297° |
| 2026-05-04 00:25 | 26.40602 | -80.42587 | 17548 ft | 352 kts | 297° |
| 2026-05-04 00:25 | 26.41913 | -80.44909 | 18104 ft | 355 kts | 297° |
| 2026-05-04 00:26 | 26.43231 | -80.47244 | 18620 ft | 357 kts | 297° |
| 2026-05-04 00:26 | 26.44564 | -80.49603 | 19116 ft | 359 kts | 297° |
| 2026-05-04 00:26 | 26.45888 | -80.51945 | 19597 ft | 361 kts | 297° |
| 2026-05-04 00:26 | 26.47396 | -80.54230 | 20075 ft | 370 kts | 306° |
| 2026-05-04 00:27 | 26.49373 | -80.56134 | 20531 ft | 383 kts | 319° |
| 2026-05-04 00:27 | 26.51781 | -80.57514 | 20982 ft | 397 kts | 333° |
| 2026-05-04 00:27 | 26.54469 | -80.58405 | 21380 ft | 404 kts | 336° |
| 2026-05-04 00:27 | 26.57188 | -80.59258 | 21820 ft | 407 kts | 336° |
| 2026-05-04 00:28 | 26.59888 | -80.60104 | 22239 ft | 409 kts | 336° |
| 2026-05-04 00:28 | 26.62637 | -80.60970 | 22635 ft | 411 kts | 335° |
| 2026-05-04 00:28 | 26.65400 | -80.61845 | 23043 ft | 414 kts | 335° |
| 2026-05-04 00:28 | 26.68180 | -80.62729 | 23441 ft | 416 kts | 335° |
| 2026-05-04 00:29 | 26.70977 | -80.63621 | 23794 ft | 419 kts | 335° |
| 2026-05-04 00:29 | 26.73787 | -80.64517 | 24139 ft | 421 kts | 335° |
| 2026-05-04 00:29 | 26.76618 | -80.65417 | 24471 ft | 423 kts | 335° |
| 2026-05-04 00:29 | 26.79422 | -80.66309 | 24804 ft | 425 kts | 335° |
| 2026-05-04 00:30 | 26.82274 | -80.67218 | 25140 ft | 427 kts | 335° |
| 2026-05-04 00:30 | 26.85141 | -80.68134 | 25480 ft | 428 kts | 335° |
| 2026-05-04 00:30 | 26.88019 | -80.69056 | 25856 ft | 430 kts | 334° |
| 2026-05-04 00:30 | 26.90912 | -80.69983 | 26192 ft | 433 kts | 334° |
| 2026-05-04 00:31 | 26.93795 | -80.70958 | 26537 ft | 433 kts | 333° |
| 2026-05-04 00:31 | 26.96625 | -80.71995 | 26870 ft | 433 kts | 332° |
| 2026-05-04 00:31 | 26.99476 | -80.73094 | 27213 ft | 434 kts | 331° |
| 2026-05-04 00:31 | 27.02338 | -80.74222 | 27545 ft | 435 kts | 331° |
| 2026-05-04 00:32 | 27.05211 | -80.75351 | 27887 ft | 438 kts | 331° |
| 2026-05-04 00:32 | 27.08093 | -80.76471 | 28230 ft | 440 kts | 332° |
| 2026-05-04 00:32 | 27.10998 | -80.77584 | 28570 ft | 442 kts | 332° |
| 2026-05-04 00:32 | 27.13920 | -80.78689 | 28910 ft | 444 kts | 332° |
| 2026-05-04 00:33 | 27.16855 | -80.79795 | 29240 ft | 446 kts | 332° |
| 2026-05-04 00:33 | 27.22734 | -80.82007 | 30090 ft | 446 kts | 332° |
| 2026-05-04 00:33 | 27.25675 | -80.83117 | 30473 ft | 445 kts | 331° |
| 2026-05-04 00:34 | 27.28608 | -80.84229 | 30822 ft | 445 kts | 331° |
| 2026-05-04 00:34 | 27.31547 | -80.85352 | 31161 ft | 446 kts | 330° |
| 2026-05-04 00:34 | 27.34486 | -80.86497 | 31501 ft | 445 kts | 329° |
| 2026-05-04 00:34 | 27.37400 | -80.87679 | 31839 ft | 444 kts | 329° |
| 2026-05-04 00:35 | 27.40274 | -80.88873 | 32186 ft | 444 kts | 328° |
| 2026-05-04 00:35 | 27.43174 | -80.90087 | 32541 ft | 445 kts | 328° |
| 2026-05-04 00:35 | 27.46080 | -80.91297 | 32913 ft | 445 kts | 328° |
| 2026-05-04 00:35 | 27.48978 | -80.92503 | 33322 ft | 443 kts | 327° |
| 2026-05-04 00:36 | 27.51872 | -80.93704 | 33705 ft | 443 kts | 327° |
| 2026-05-04 00:36 | 27.54772 | -80.94900 | 33994 ft | 444 kts | 327° |
| 2026-05-04 00:36 | 27.57684 | -80.96097 | 34062 ft | 445 kts | 327° |
| 2026-05-04 00:37 | 27.63504 | -80.98481 | 34060 ft | 444 kts | 327° |
| 2026-05-04 00:37 | 27.69273 | -81.00872 | 34059 ft | 445 kts | 327° |
| 2026-05-04 00:38 | 27.75103 | -81.03297 | 34064 ft | 446 kts | 327° |
| 2026-05-04 00:38 | 27.80936 | -81.05712 | 34060 ft | 446 kts | 327° |
| 2026-05-04 00:39 | 27.86731 | -81.08114 | 34062 ft | 445 kts | 327° |
| 2026-05-04 00:39 | 27.92553 | -81.10528 | 34070 ft | 445 kts | 327° |
| 2026-05-04 00:40 | 27.98380 | -81.12939 | 34067 ft | 446 kts | 327° |
| 2026-05-04 00:40 | 28.04197 | -81.15374 | 34080 ft | 443 kts | 325° |
| 2026-05-04 00:41 | 28.09787 | -81.18099 | 34118 ft | 438 kts | 321° |
| 2026-05-04 00:41 | 28.15273 | -81.21046 | 34094 ft | 436 kts | 321° |
| 2026-05-04 00:42 | 28.20769 | -81.23975 | 34099 ft | 437 kts | 321° |
| 2026-05-04 00:42 | 28.26324 | -81.26836 | 34098 ft | 438 kts | 322° |
| 2026-05-04 00:43 | 28.31852 | -81.29666 | 34087 ft | 436 kts | 322° |
| 2026-05-04 00:43 | 28.37378 | -81.32507 | 34091 ft | 436 kts | 322° |
| 2026-05-04 00:44 | 28.42916 | -81.35341 | 34086 ft | 436 kts | 322° |
| 2026-05-04 00:44 | 28.48452 | -81.38160 | 34101 ft | 436 kts | 322° |
| 2026-05-04 00:45 | 28.53991 | -81.41001 | 34100 ft | 435 kts | 322° |
| 2026-05-04 00:45 | 28.59481 | -81.43831 | 34100 ft | 435 kts | 322° |
| 2026-05-04 00:46 | 28.65010 | -81.46664 | 34099 ft | 436 kts | 322° |
| 2026-05-04 00:46 | 28.70537 | -81.49495 | 34130 ft | 435 kts | 322° |
| 2026-05-04 00:47 | 28.76045 | -81.52323 | 34097 ft | 433 kts | 322° |
| 2026-05-04 00:47 | 28.81512 | -81.55137 | 34096 ft | 433 kts | 322° |
| 2026-05-04 00:48 | 28.87011 | -81.57974 | 34093 ft | 433 kts | 322° |
| 2026-05-04 00:48 | 28.92633 | -81.60601 | 34091 ft | 449 kts | 332° |
| 2026-05-04 00:48 | 28.95792 | -81.61229 | 34092 ft | 468 kts | 342° |
| 2026-05-04 00:49 | 28.99052 | -81.61525 | 34151 ft | 470 kts | 343° |
| 2026-05-04 00:49 | 29.05521 | -81.62092 | 34097 ft | 467 kts | 343° |
| 2026-05-04 00:50 | 29.11999 | -81.62680 | 34098 ft | 467 kts | 343° |
| 2026-05-04 00:50 | 29.18478 | -81.63280 | 34097 ft | 466 kts | 342° |
| 2026-05-04 00:51 | 29.24924 | -81.63874 | 34104 ft | 467 kts | 343° |
| 2026-05-04 00:51 | 29.31396 | -81.64465 | 34096 ft | 465 kts | 343° |
| 2026-05-04 00:52 | 29.37851 | -81.65049 | 34109 ft | 464 kts | 343° |
| 2026-05-04 00:52 | 29.44301 | -81.65645 | 34119 ft | 464 kts | 344° |
| 2026-05-04 00:53 | 29.50715 | -81.66237 | 34121 ft | 461 kts | 344° |
| 2026-05-04 00:53 | 29.57072 | -81.66824 | 34174 ft | 461 kts | 344° |
| 2026-05-04 00:54 | 29.63451 | -81.67395 | 34119 ft | 458 kts | 344° |
| 2026-05-04 00:54 | 29.69813 | -81.67995 | 34117 ft | 458 kts | 344° |
| 2026-05-04 00:55 | 29.76172 | -81.68593 | 34124 ft | 458 kts | 344° |
| 2026-05-04 00:55 | 29.82530 | -81.69185 | 34119 ft | 458 kts | 344° |
| 2026-05-04 00:56 | 29.88886 | -81.69767 | 34116 ft | 457 kts | 345° |
| 2026-05-04 00:56 | 29.95227 | -81.70359 | 34121 ft | 457 kts | 344° |
| 2026-05-04 00:57 | 30.01543 | -81.70944 | 34125 ft | 457 kts | 345° |
| 2026-05-04 00:57 | 30.07897 | -81.71527 | 34131 ft | 457 kts | 345° |
| 2026-05-04 00:58 | 30.14244 | -81.72123 | 34186 ft | 457 kts | 345° |
| 2026-05-04 00:58 | 30.20547 | -81.72716 | 34138 ft | 457 kts | 345° |
| 2026-05-04 00:59 | 30.26905 | -81.73308 | 34143 ft | 457 kts | 345° |
| 2026-05-04 00:59 | 30.33259 | -81.73904 | 34158 ft | 457 kts | 345° |
| 2026-05-04 01:00 | 30.39595 | -81.74502 | 34133 ft | 457 kts | 345° |
| 2026-05-04 01:00 | 30.45904 | -81.75099 | 34125 ft | 457 kts | 345° |
| 2026-05-04 01:01 | 30.52248 | -81.75691 | 34123 ft | 457 kts | 345° |
| 2026-05-04 01:01 | 30.58593 | -81.76283 | 34128 ft | 457 kts | 344° |
| 2026-05-04 01:01 | 30.61691 | -81.76865 | 34128 ft | 444 kts | 335° |
| 2026-05-04 01:02 | 30.64577 | -81.77974 | 34131 ft | 430 kts | 326° |
| 2026-05-04 01:02 | 30.69854 | -81.81002 | 34188 ft | 425 kts | 322° |
| 2026-05-04 01:03 | 30.75170 | -81.84084 | 34154 ft | 427 kts | 323° |
| 2026-05-04 01:03 | 30.80498 | -81.87156 | 34162 ft | 427 kts | 323° |
| 2026-05-04 01:04 | 30.85821 | -81.90230 | 34130 ft | 427 kts | 323° |
| 2026-05-04 01:04 | 30.91141 | -81.93322 | 34130 ft | 427 kts | 323° |
| 2026-05-04 01:05 | 30.96420 | -81.96395 | 34150 ft | 427 kts | 323° |
| 2026-05-04 01:05 | 31.01744 | -81.99496 | 34150 ft | 427 kts | 323° |
| 2026-05-04 01:06 | 31.07072 | -82.02602 | 34122 ft | 428 kts | 323° |
| 2026-05-04 01:06 | 31.12381 | -82.05688 | 34123 ft | 428 kts | 323° |
| 2026-05-04 01:07 | 31.17715 | -82.08795 | 34120 ft | 428 kts | 323° |
| 2026-05-04 01:07 | 31.23038 | -82.11917 | 34132 ft | 428 kts | 323° |
| 2026-05-04 01:08 | 31.28337 | -82.15026 | 34160 ft | 428 kts | 323° |
| 2026-05-04 01:08 | 31.33693 | -82.18167 | 34126 ft | 432 kts | 323° |
| 2026-05-04 01:09 | 31.38175 | -82.20795 | 34125 ft | 433 kts | 323° |
| 2026-05-04 01:09 | 31.43561 | -82.23957 | 34122 ft | 433 kts | 323° |
| 2026-05-04 01:10 | 31.48951 | -82.27129 | 34121 ft | 433 kts | 323° |
| 2026-05-04 01:10 | 31.54336 | -82.30307 | 34114 ft | 433 kts | 323° |
| 2026-05-04 01:11 | 31.59687 | -82.33466 | 34104 ft | 435 kts | 323° |
| 2026-05-04 01:11 | 31.65109 | -82.36664 | 34106 ft | 436 kts | 323° |
| 2026-05-04 01:12 | 31.70530 | -82.39865 | 34120 ft | 436 kts | 323° |
| 2026-05-04 01:12 | 31.75943 | -82.43073 | 34099 ft | 435 kts | 323° |
| 2026-05-04 01:13 | 31.81357 | -82.46284 | 34100 ft | 435 kts | 323° |
| 2026-05-04 01:13 | 31.86764 | -82.49502 | 34119 ft | 436 kts | 324° |
| 2026-05-04 01:14 | 31.92169 | -82.52709 | 34126 ft | 436 kts | 324° |
| 2026-05-04 01:14 | 31.97362 | -82.56263 | 34126 ft | 423 kts | 312° |
| 2026-05-04 01:15 | 32.01767 | -82.60719 | 34123 ft | 420 kts | 310° |
| 2026-05-04 01:15 | 32.06198 | -82.65238 | 34119 ft | 420 kts | 310° |
| 2026-05-04 01:16 | 32.10594 | -82.69719 | 34120 ft | 420 kts | 310° |
| 2026-05-04 01:16 | 32.15022 | -82.74249 | 34140 ft | 420 kts | 310° |
| 2026-05-04 01:17 | 32.19436 | -82.78756 | 33650 ft | 419 kts | 311° |
| 2026-05-04 01:17 | 32.21636 | -82.80999 | 33162 ft | 415 kts | 311° |
| 2026-05-04 01:17 | 32.23825 | -82.83235 | 32706 ft | 418 kts | 311° |
| 2026-05-04 01:17 | 32.26051 | -82.85530 | 32241 ft | 429 kts | 311° |
| 2026-05-04 01:18 | 32.28273 | -82.87825 | 31780 ft | 430 kts | 311° |
| 2026-05-04 01:18 | 32.30528 | -82.90146 | 31317 ft | 428 kts | 311° |
| 2026-05-04 01:18 | 32.32771 | -82.92450 | 30873 ft | 426 kts | 312° |
| 2026-05-04 01:18 | 32.35000 | -82.94739 | 30421 ft | 423 kts | 312° |
| 2026-05-04 01:19 | 32.37213 | -82.97013 | 29944 ft | 420 kts | 312° |
| 2026-05-04 01:19 | 32.39417 | -82.99280 | 29467 ft | 418 kts | 312° |
| 2026-05-04 01:19 | 32.41607 | -83.01534 | 29015 ft | 415 kts | 312° |
| 2026-05-04 01:19 | 32.43775 | -83.03767 | 28591 ft | 412 kts | 313° |
| 2026-05-04 01:20 | 32.45933 | -83.05989 | 28138 ft | 409 kts | 313° |
| 2026-05-04 01:20 | 32.48080 | -83.08198 | 27690 ft | 407 kts | 314° |
| 2026-05-04 01:20 | 32.50180 | -83.10359 | 27250 ft | 404 kts | 314° |
| 2026-05-04 01:20 | 32.52303 | -83.12546 | 26793 ft | 401 kts | 314° |
| 2026-05-04 01:21 | 32.54404 | -83.14716 | 26324 ft | 398 kts | 314° |
| 2026-05-04 01:21 | 32.56488 | -83.16871 | 25873 ft | 395 kts | 315° |
| 2026-05-04 01:21 | 32.58556 | -83.19009 | 25396 ft | 393 kts | 315° |
| 2026-05-04 01:21 | 32.60605 | -83.21132 | 24925 ft | 390 kts | 315° |
| 2026-05-04 01:22 | 32.62644 | -83.23247 | 24441 ft | 388 kts | 315° |
| 2026-05-04 01:22 | 32.64641 | -83.25320 | 23966 ft | 386 kts | 316° |
| 2026-05-04 01:22 | 32.66659 | -83.27413 | 23447 ft | 384 kts | 316° |
| 2026-05-04 01:22 | 32.68661 | -83.29494 | 22952 ft | 381 kts | 316° |
| 2026-05-04 01:23 | 32.70646 | -83.31560 | 22470 ft | 378 kts | 316° |
| 2026-05-04 01:23 | 32.72612 | -83.33608 | 22007 ft | 374 kts | 316° |
| 2026-05-04 01:23 | 32.74564 | -83.35641 | 21538 ft | 371 kts | 316° |
| 2026-05-04 01:23 | 32.76497 | -83.37653 | 21061 ft | 368 kts | 316° |
| 2026-05-04 01:24 | 32.78421 | -83.39655 | 20605 ft | 365 kts | 316° |
| 2026-05-04 01:24 | 32.80299 | -83.41611 | 20163 ft | 362 kts | 316° |
| 2026-05-04 01:24 | 32.82186 | -83.43582 | 19707 ft | 359 kts | 316° |
| 2026-05-04 01:24 | 32.84054 | -83.45538 | 19267 ft | 357 kts | 316° |
| 2026-05-04 01:25 | 32.85913 | -83.47487 | 18830 ft | 354 kts | 316° |
| 2026-05-04 01:25 | 32.87759 | -83.49419 | 18376 ft | 352 kts | 316° |
| 2026-05-04 01:25 | 32.89600 | -83.51343 | 17895 ft | 350 kts | 316° |
| 2026-05-04 01:25 | 32.91425 | -83.53251 | 17458 ft | 347 kts | 316° |
| 2026-05-04 01:26 | 32.93215 | -83.55124 | 17032 ft | 345 kts | 316° |
| 2026-05-04 01:26 | 32.95015 | -83.57008 | 16608 ft | 342 kts | 317° |
| 2026-05-04 01:26 | 32.96797 | -83.58872 | 16176 ft | 340 kts | 317° |
| 2026-05-04 01:26 | 32.98572 | -83.60729 | 15751 ft | 338 kts | 317° |
| 2026-05-04 01:27 | 33.00337 | -83.62575 | 15340 ft | 336 kts | 317° |
| 2026-05-04 01:27 | 33.02090 | -83.64412 | 14828 ft | 336 kts | 317° |
| 2026-05-04 01:27 | 33.03834 | -83.66245 | 14387 ft | 333 kts | 317° |
| 2026-05-04 01:27 | 33.05563 | -83.68067 | 13971 ft | 330 kts | 317° |
| 2026-05-04 01:28 | 33.07275 | -83.69875 | 13528 ft | 328 kts | 317° |
| 2026-05-04 01:28 | 33.08978 | -83.71669 | 13116 ft | 326 kts | 317° |
| 2026-05-04 01:28 | 33.10650 | -83.73432 | 12711 ft | 324 kts | 318° |
| 2026-05-04 01:28 | 33.12337 | -83.75207 | 12303 ft | 322 kts | 318° |
| 2026-05-04 01:29 | 33.14012 | -83.76967 | 11903 ft | 320 kts | 318° |
| 2026-05-04 01:29 | 33.15679 | -83.78720 | 11499 ft | 318 kts | 318° |
| 2026-05-04 01:29 | 33.17315 | -83.80448 | 11315 ft | 308 kts | 318° |
| 2026-05-04 01:29 | 33.18878 | -83.82101 | 11091 ft | 291 kts | 318° |
| 2026-05-04 01:30 | 33.20344 | -83.83728 | 10580 ft | 285 kts | 316° |
| 2026-05-04 01:30 | 33.21728 | -83.85359 | 10064 ft | 281 kts | 315° |
| 2026-05-04 01:30 | 33.23095 | -83.87009 | 9624 ft | 279 kts | 315° |
| 2026-05-04 01:30 | 33.24456 | -83.88663 | 9264 ft | 279 kts | 315° |
| 2026-05-04 01:31 | 33.25821 | -83.90321 | 8909 ft | 278 kts | 315° |
| 2026-05-04 01:31 | 33.27187 | -83.91969 | 8543 ft | 278 kts | 315° |
| 2026-05-04 01:31 | 33.28549 | -83.93601 | 8191 ft | 277 kts | 315° |
| 2026-05-04 01:31 | 33.29908 | -83.95224 | 7996 ft | 273 kts | 315° |
| 2026-05-04 01:32 | 33.31243 | -83.96817 | 8002 ft | 274 kts | 315° |
| 2026-05-04 01:32 | 33.32592 | -83.98430 | 7989 ft | 274 kts | 315° |
| 2026-05-04 01:32 | 33.33941 | -84.00047 | 7789 ft | 273 kts | 315° |
| 2026-05-04 01:32 | 33.35345 | -84.01570 | 7584 ft | 272 kts | 325° |
| 2026-05-04 01:33 | 33.37034 | -84.02579 | 7337 ft | 272 kts | 342° |
| 2026-05-04 01:33 | 33.38893 | -84.02940 | 7094 ft | 272 kts | 358° |
| 2026-05-04 01:33 | 33.40772 | -84.02961 | 6855 ft | 272 kts | 359° |
| 2026-05-04 01:33 | 33.42658 | -84.02991 | 6615 ft | 271 kts | 359° |
| 2026-05-04 01:34 | 33.44541 | -84.03034 | 6343 ft | 271 kts | 358° |
| 2026-05-04 01:34 | 33.46417 | -84.03174 | 6085 ft | 269 kts | 347° |
| 2026-05-04 01:34 | 33.48117 | -84.04026 | 5830 ft | 264 kts | 324° |
| 2026-05-04 01:34 | 33.49471 | -84.05489 | 5578 ft | 260 kts | 315° |
| 2026-05-04 01:35 | 33.50768 | -84.06996 | 5321 ft | 257 kts | 315° |
| 2026-05-04 01:35 | 33.52047 | -84.08481 | 5073 ft | 255 kts | 315° |
| 2026-05-04 01:35 | 33.53316 | -84.09953 | 4825 ft | 252 kts | 315° |
| 2026-05-04 01:35 | 33.54552 | -84.11388 | 4600 ft | 249 kts | 315° |
| 2026-05-04 01:36 | 33.55791 | -84.12823 | 4343 ft | 246 kts | 315° |
| 2026-05-04 01:36 | 33.57013 | -84.14240 | 4112 ft | 242 kts | 315° |
| 2026-05-04 01:36 | 33.58202 | -84.15623 | 4014 ft | 232 kts | 315° |
| 2026-05-04 01:36 | 33.59329 | -84.16937 | 4016 ft | 223 kts | 315° |
| 2026-05-04 01:37 | 33.60428 | -84.18220 | 4022 ft | 221 kts | 314° |
| 2026-05-04 01:37 | 33.61526 | -84.19502 | 4015 ft | 220 kts | 314° |
| 2026-05-04 01:37 | 33.62538 | -84.20841 | 4019 ft | 219 kts | 301° |
| 2026-05-04 01:37 | 33.63103 | -84.22518 | 4015 ft | 218 kts | 279° |
| 2026-05-04 01:38 | 33.63179 | -84.24326 | 3845 ft | 216 kts | 270° |
| 2026-05-04 01:38 | 33.63174 | -84.26124 | 3580 ft | 213 kts | 270° |
| 2026-05-04 01:38 | 33.63173 | -84.27857 | 3312 ft | 203 kts | 270° |
| 2026-05-04 01:38 | 33.63174 | -84.29494 | 3067 ft | 188 kts | 270° |
| 2026-05-04 01:39 | 33.63176 | -84.30990 | 2824 ft | 168 kts | 270° |
| 2026-05-04 01:39 | 33.63178 | -84.32305 | 2599 ft | 150 kts | 272° |
| 2026-05-04 01:39 | 33.63310 | -84.33497 | 2292 ft | 143 kts | 279° |
| 2026-05-04 01:39 | 33.63435 | -84.34668 | 2059 ft | 140 kts | 276° |
| 2026-05-04 01:40 | 33.63467 | -84.35838 | 1874 ft | 140 kts | 272° |
| 2026-05-04 01:40 | 33.63472 | -84.37005 | 1750 ft | 140 kts | 271° |
| 2026-05-04 01:40 | 33.63469 | -84.38177 | 1577 ft | 140 kts | 271° |
| 2026-05-04 01:40 | 33.63466 | -84.39343 | 1356 ft | 139 kts | 272° |
| 2026-05-04 01:41 | 33.63469 | -84.40492 | 1124 ft | 138 kts | 271° |
| 2026-05-04 01:41 | 33.63471 | -84.41620 | 1014 ft | 126 kts | 271° |
| 2026-05-04 01:41 | 33.63472 | -84.42520 | 1009 ft | 84 kts | 270° |
| 2026-05-04 01:41 | 33.63478 | -84.43004 | 1006 ft | 31 kts | 284° |
| 2026-05-04 01:42 | 33.63568 | -84.43185 | 1006 ft | 24 kts | 293° |
| 2026-05-04 01:42 | 33.63638 | -84.43318 | 1006 ft | 16 kts | 340° |
| 2026-05-04 01:42 | 33.63728 | -84.43396 | 1006 ft | 17 kts | 355° |
| 2026-05-04 01:42 | 33.63840 | -84.43384 | 1006 ft | 16 kts | 349° |
| 2026-05-04 01:43 | 33.63905 | -84.43334 | 1006 ft | 5 kts | 88° |
| 2026-05-04 01:43 | 33.63905 | -84.43330 | 1006 ft | 0 kts | 89° |